sensor_id;sensor_type;location;lat;lon;timestamp;pressure;altitude;pressure_sealevel;temperature;humidity
80511;BME280;69840;53.040;8.600;2023-08-08T00:01:54;101136.78;;;13.69;76.70
80511;BME280;69840;53.040;8.600;2023-08-08T00:06:06;101127.81;;;13.70;76.75
80511;BME280;69840;53.040;8.600;2023-08-08T00:10:19;101119.38;;;13.67;77.24
80511;BME280;69840;53.040;8.600;2023-08-08T00:14:31;101116.72;;;13.67;77.38
80511;BME280;69840;53.040;8.600;2023-08-08T00:18:44;101119.72;;;13.64;77.56
80511;BME280;69840;53.040;8.600;2023-08-08T00:22:56;101118.50;;;13.75;77.48
80511;BME280;69840;53.040;8.600;2023-08-08T00:27:09;101118.84;;;13.72;77.97
80511;BME280;69840;53.040;8.600;2023-08-08T00:31:22;101112.19;;;13.76;78.04
80511;BME280;69840;53.040;8.600;2023-08-08T00:35:34;101116.06;;;13.65;78.13
80511;BME280;69840;53.040;8.600;2023-08-08T00:39:48;101115.84;;;13.75;77.95
80511;BME280;69840;53.040;8.600;2023-08-08T00:44:00;101105.38;;;13.73;78.34
80511;BME280;69840;53.040;8.600;2023-08-08T00:48:13;101104.97;;;13.61;78.87
80511;BME280;69840;53.040;8.600;2023-08-08T00:52:25;101107.22;;;13.73;78.32
80511;BME280;69840;53.040;8.600;2023-08-08T00:56:40;101100.78;;;13.67;78.94
80511;BME280;69840;53.040;8.600;2023-08-08T01:00:54;101097.41;;;13.73;78.58
80511;BME280;69840;53.040;8.600;2023-08-08T01:05:08;101103.22;;;13.77;78.47
80511;BME280;69840;53.040;8.600;2023-08-08T01:09:43;101090.81;;;13.69;78.93
80511;BME280;69840;53.040;8.600;2023-08-08T01:13:59;101089.28;;;13.75;78.90
80511;BME280;69840;53.040;8.600;2023-08-08T01:18:12;101083.63;;;13.78;78.56
80511;BME280;69840;53.040;8.600;2023-08-08T01:22:29;101088.56;;;13.81;78.50
80511;BME280;69840;53.040;8.600;2023-08-08T01:26:43;101079.81;;;13.72;79.09
80511;BME280;69840;53.040;8.600;2023-08-08T01:30:56;101092.06;;;13.81;78.69
80511;BME280;69840;53.040;8.600;2023-08-08T01:35:09;101086.41;;;13.84;78.68
80511;BME280;69840;53.040;8.600;2023-08-08T01:39:27;101080.53;;;13.89;78.77
80511;BME280;69840;53.040;8.600;2023-08-08T01:43:41;101086.31;;;13.92;79.00
80511;BME280;69840;53.040;8.600;2023-08-08T01:47:53;101075.88;;;13.91;78.83
80511;BME280;69840;53.040;8.600;2023-08-08T01:52:07;101070.38;;;13.92;78.56
80511;BME280;69840;53.040;8.600;2023-08-08T01:56:20;101069.72;;;13.90;79.12
80511;BME280;69840;53.040;8.600;2023-08-08T02:00:33;101058.75;;;13.93;79.07
80511;BME280;69840;53.040;8.600;2023-08-08T02:04:46;101069.56;;;13.92;79.38
80511;BME280;69840;53.040;8.600;2023-08-08T02:08:58;101067.72;;;13.92;79.42
80511;BME280;69840;53.040;8.600;2023-08-08T02:13:11;101068.84;;;13.98;79.33
80511;BME280;69840;53.040;8.600;2023-08-08T02:17:25;101069.06;;;13.88;79.92
80511;BME280;69840;53.040;8.600;2023-08-08T02:21:37;101062.28;;;13.86;80.37
80511;BME280;69840;53.040;8.600;2023-08-08T02:25:50;101061.06;;;13.74;80.61
80511;BME280;69840;53.040;8.600;2023-08-08T02:30:03;101057.16;;;13.84;80.98
80511;BME280;69840;53.040;8.600;2023-08-08T02:34:15;101051.38;;;13.81;80.51
80511;BME280;69840;53.040;8.600;2023-08-08T02:38:28;101053.88;;;13.82;80.75
80511;BME280;69840;53.040;8.600;2023-08-08T02:42:40;101057.09;;;13.69;81.42
80511;BME280;69840;53.040;8.600;2023-08-08T02:46:53;101046.28;;;13.71;81.35
80511;BME280;69840;53.040;8.600;2023-08-08T02:51:06;101029.06;;;13.67;81.79
80511;BME280;69840;53.040;8.600;2023-08-08T02:55:18;101032.44;;;13.84;81.20
80511;BME280;69840;53.040;8.600;2023-08-08T02:59:34;101026.72;;;13.87;81.15
80511;BME280;69840;53.040;8.600;2023-08-08T03:03:50;101028.28;;;13.81;81.31
80511;BME280;69840;53.040;8.600;2023-08-08T03:08:05;101019.72;;;13.71;82.20
80511;BME280;69840;53.040;8.600;2023-08-08T03:12:18;101013.78;;;13.69;82.31
80511;BME280;69840;53.040;8.600;2023-08-08T03:16:32;101008.41;;;13.77;81.98
80511;BME280;69840;53.040;8.600;2023-08-08T03:20:46;101011.91;;;13.92;81.65
80511;BME280;69840;53.040;8.600;2023-08-08T03:24:59;101009.91;;;13.94;81.87
80511;BME280;69840;53.040;8.600;2023-08-08T03:29:12;101001.84;;;14.02;81.45
80511;BME280;69840;53.040;8.600;2023-08-08T03:33:29;101000.66;;;14.05;81.31
80511;BME280;69840;53.040;8.600;2023-08-08T03:37:42;100989.50;;;14.10;81.40
80511;BME280;69840;53.040;8.600;2023-08-08T03:41:56;100993.50;;;14.05;81.83
80511;BME280;69840;53.040;8.600;2023-08-08T03:46:09;100995.53;;;14.03;82.02
80511;BME280;69840;53.040;8.600;2023-08-08T03:50:22;100988.13;;;14.14;81.87
80511;BME280;69840;53.040;8.600;2023-08-08T03:54:34;100989.22;;;14.19;81.42
80511;BME280;69840;53.040;8.600;2023-08-08T03:58:47;100989.69;;;14.23;81.86
80511;BME280;69840;53.040;8.600;2023-08-08T04:03:00;100994.66;;;14.26;81.84
80511;BME280;69840;53.040;8.600;2023-08-08T04:07:12;100995.66;;;14.25;81.74
80511;BME280;69840;53.040;8.600;2023-08-08T04:11:25;100987.50;;;14.26;81.67
80511;BME280;69840;53.040;8.600;2023-08-08T04:15:38;100985.00;;;14.25;82.46
80511;BME280;69840;53.040;8.600;2023-08-08T04:19:51;100985.13;;;14.31;81.82
80511;BME280;69840;53.040;8.600;2023-08-08T04:24:04;100995.84;;;14.38;81.57
80511;BME280;69840;53.040;8.600;2023-08-08T04:28:16;100976.16;;;14.47;81.46
80511;BME280;69840;53.040;8.600;2023-08-08T04:32:29;100967.97;;;14.49;81.22
80511;BME280;69840;53.040;8.600;2023-08-08T04:36:41;100967.06;;;14.56;81.13
80511;BME280;69840;53.040;8.600;2023-08-08T04:40:54;100953.84;;;14.48;81.08
80511;BME280;69840;53.040;8.600;2023-08-08T04:45:06;100963.69;;;14.62;80.82
80511;BME280;69840;53.040;8.600;2023-08-08T04:49:19;100962.28;;;14.66;80.73
80511;BME280;69840;53.040;8.600;2023-08-08T04:53:32;100970.34;;;14.73;80.43
80511;BME280;69840;53.040;8.600;2023-08-08T04:57:44;100964.09;;;14.81;80.06
80511;BME280;69840;53.040;8.600;2023-08-08T05:01:57;100959.03;;;14.86;79.97
80511;BME280;69840;53.040;8.600;2023-08-08T05:06:10;100960.63;;;15.01;79.89
80511;BME280;69840;53.040;8.600;2023-08-08T05:10:22;100964.03;;;14.95;79.81
80511;BME280;69840;53.040;8.600;2023-08-08T05:14:35;100962.44;;;14.94;79.88
80511;BME280;69840;53.040;8.600;2023-08-08T05:18:47;100963.50;;;15.00;79.80
80511;BME280;69840;53.040;8.600;2023-08-08T05:22:59;100973.75;;;15.03;79.60
80511;BME280;69840;53.040;8.600;2023-08-08T05:27:12;100964.63;;;15.12;79.50
80511;BME280;69840;53.040;8.600;2023-08-08T05:31:25;100958.47;;;15.26;78.75
80511;BME280;69840;53.040;8.600;2023-08-08T05:35:37;100965.53;;;15.19;78.81
80511;BME280;69840;53.040;8.600;2023-08-08T05:39:50;100963.25;;;15.16;79.04
80511;BME280;69840;53.040;8.600;2023-08-08T05:44:02;100965.38;;;15.42;78.71
80511;BME280;69840;53.040;8.600;2023-08-08T05:48:15;100955.78;;;15.48;78.45
80511;BME280;69840;53.040;8.600;2023-08-08T05:52:27;100952.56;;;15.73;77.37
80511;BME280;69840;53.040;8.600;2023-08-08T05:56:40;100958.19;;;15.92;77.04
80511;BME280;69840;53.040;8.600;2023-08-08T06:00:52;100955.72;;;15.90;76.83
80511;BME280;69840;53.040;8.600;2023-08-08T06:05:05;100951.19;;;15.84;76.77
80511;BME280;69840;53.040;8.600;2023-08-08T06:09:18;100947.84;;;16.03;75.52
80511;BME280;69840;53.040;8.600;2023-08-08T06:13:31;100946.53;;;16.21;74.74
80511;BME280;69840;53.040;8.600;2023-08-08T06:17:43;100944.13;;;16.39;73.98
80511;BME280;69840;53.040;8.600;2023-08-08T06:21:56;100942.78;;;16.56;73.37
80511;BME280;69840;53.040;8.600;2023-08-08T06:26:08;100948.75;;;16.58;73.09
80511;BME280;69840;53.040;8.600;2023-08-08T06:30:21;100941.31;;;16.54;72.66
80511;BME280;69840;53.040;8.600;2023-08-08T06:34:33;100955.38;;;16.69;72.41
80511;BME280;69840;53.040;8.600;2023-08-08T06:38:46;100952.13;;;16.73;72.00
80511;BME280;69840;53.040;8.600;2023-08-08T06:42:58;100952.22;;;17.00;71.46
80511;BME280;69840;53.040;8.600;2023-08-08T06:47:11;100941.53;;;17.00;70.85
80511;BME280;69840;53.040;8.600;2023-08-08T06:51:24;100946.91;;;17.33;69.68
80511;BME280;69840;53.040;8.600;2023-08-08T06:55:37;100959.94;;;17.69;68.07
80511;BME280;69840;53.040;8.600;2023-08-08T06:59:49;100961.38;;;17.78;67.02
80511;BME280;69840;53.040;8.600;2023-08-08T07:04:02;100958.47;;;17.53;67.15
80511;BME280;69840;53.040;8.600;2023-08-08T07:08:15;100959.47;;;17.52;66.07
80511;BME280;69840;53.040;8.600;2023-08-08T07:12:27;100961.13;;;17.53;66.85
80511;BME280;69840;53.040;8.600;2023-08-08T07:16:40;100961.94;;;17.53;66.03
80511;BME280;69840;53.040;8.600;2023-08-08T07:20:52;100954.78;;;17.74;65.78
80511;BME280;69840;53.040;8.600;2023-08-08T07:25:05;100941.59;;;17.99;65.42
80511;BME280;69840;53.040;8.600;2023-08-08T07:29:18;100935.47;;;17.72;65.04
80511;BME280;69840;53.040;8.600;2023-08-08T07:33:30;100935.88;;;17.75;66.91
80511;BME280;69840;53.040;8.600;2023-08-08T07:37:43;100936.25;;;17.39;67.18
80511;BME280;69840;53.040;8.600;2023-08-08T07:41:55;100938.06;;;17.19;68.26
80511;BME280;69840;53.040;8.600;2023-08-08T07:46:08;100943.41;;;17.12;67.33
80511;BME280;69840;53.040;8.600;2023-08-08T07:50:21;100923.69;;;17.20;66.16
80511;BME280;69840;53.040;8.600;2023-08-08T07:54:34;100923.09;;;17.58;65.57
80511;BME280;69840;53.040;8.600;2023-08-08T07:58:47;100917.69;;;18.10;64.54
80511;BME280;69840;53.040;8.600;2023-08-08T08:02:59;100912.69;;;18.34;61.77
80511;BME280;69840;53.040;8.600;2023-08-08T08:07:12;100924.16;;;18.61;61.83
80511;BME280;69840;53.040;8.600;2023-08-08T08:11:25;100925.06;;;18.28;62.39
80511;BME280;69840;53.040;8.600;2023-08-08T08:15:38;100928.34;;;18.30;61.65
80511;BME280;69840;53.040;8.600;2023-08-08T08:19:51;100908.88;;;18.10;60.80
80511;BME280;69840;53.040;8.600;2023-08-08T08:24:03;100911.47;;;18.36;59.37
80511;BME280;69840;53.040;8.600;2023-08-08T08:28:16;100920.22;;;18.63;58.19
80511;BME280;69840;53.040;8.600;2023-08-08T08:32:32;100902.75;;;18.47;58.47
80511;BME280;69840;53.040;8.600;2023-08-08T08:36:44;100915.22;;;18.73;57.48
80511;BME280;69840;53.040;8.600;2023-08-08T08:40:58;100919.19;;;18.57;58.71
80511;BME280;69840;53.040;8.600;2023-08-08T08:45:11;100912.31;;;18.81;57.61
80511;BME280;69840;53.040;8.600;2023-08-08T08:49:24;100902.81;;;19.17;56.01
80511;BME280;69840;53.040;8.600;2023-08-08T08:53:38;100904.59;;;18.98;55.97
80511;BME280;69840;53.040;8.600;2023-08-08T08:57:51;100899.53;;;19.40;55.94
80511;BME280;69840;53.040;8.600;2023-08-08T09:02:03;100903.03;;;19.15;54.49
80511;BME280;69840;53.040;8.600;2023-08-08T09:06:16;100902.31;;;19.02;55.10
80511;BME280;69840;53.040;8.600;2023-08-08T09:10:31;100900.81;;;19.06;55.36
80511;BME280;69840;53.040;8.600;2023-08-08T09:14:44;100900.91;;;18.92;55.95
80511;BME280;69840;53.040;8.600;2023-08-08T09:18:56;100894.56;;;19.18;54.96
80511;BME280;69840;53.040;8.600;2023-08-08T09:23:09;100889.84;;;19.39;52.71
80511;BME280;69840;53.040;8.600;2023-08-08T09:27:21;100881.97;;;19.44;52.73
80511;BME280;69840;53.040;8.600;2023-08-08T09:31:34;100898.88;;;19.44;53.06
80511;BME280;69840;53.040;8.600;2023-08-08T09:35:47;100867.59;;;19.38;52.71
80511;BME280;69840;53.040;8.600;2023-08-08T09:40:02;100870.97;;;19.77;52.90
80511;BME280;69840;53.040;8.600;2023-08-08T09:44:16;100876.59;;;19.93;51.01
80511;BME280;69840;53.040;8.600;2023-08-08T09:48:32;100867.47;;;20.31;50.76
80511;BME280;69840;53.040;8.600;2023-08-08T09:52:46;100873.81;;;20.18;50.46
80511;BME280;69840;53.040;8.600;2023-08-08T09:56:59;100873.69;;;19.52;51.89
80511;BME280;69840;53.040;8.600;2023-08-08T10:01:13;100878.81;;;19.04;53.71
80511;BME280;69840;53.040;8.600;2023-08-08T10:05:26;100880.63;;;19.59;52.58
80511;BME280;69840;53.040;8.600;2023-08-08T10:09:42;100882.00;;;19.87;50.85
80511;BME280;69840;53.040;8.600;2023-08-08T10:13:54;100871.56;;;20.15;50.59
80511;BME280;69840;53.040;8.600;2023-08-08T10:18:08;100884.63;;;20.30;49.46
80511;BME280;69840;53.040;8.600;2023-08-08T10:22:22;100868.31;;;19.95;50.18
80511;BME280;69840;53.040;8.600;2023-08-08T10:26:55;100890.16;;;19.99;50.33
80511;BME280;69840;53.040;8.600;2023-08-08T10:31:17;100869.56;;;20.29;49.32
80511;BME280;69840;53.040;8.600;2023-08-08T10:35:36;100873.53;;;20.26;49.79
80511;BME280;69840;53.040;8.600;2023-08-08T10:39:53;100870.75;;;19.78;50.86
80511;BME280;69840;53.040;8.600;2023-08-08T10:44:08;100885.09;;;19.16;59.10
80511;BME280;69840;53.040;8.600;2023-08-08T10:48:21;100890.38;;;18.60;60.06
80511;BME280;69840;53.040;8.600;2023-08-08T10:52:50;100883.63;;;19.20;57.37
80511;BME280;69840;53.040;8.600;2023-08-08T10:57:02;100902.38;;;19.20;56.21
80511;BME280;69840;53.040;8.600;2023-08-08T11:01:15;100922.38;;;18.41;62.75
80511;BME280;69840;53.040;8.600;2023-08-08T11:05:29;100904.03;;;18.38;63.86
80511;BME280;69840;53.040;8.600;2023-08-08T11:09:43;100895.41;;;18.81;63.88
80511;BME280;69840;53.040;8.600;2023-08-08T11:13:55;100885.75;;;19.36;62.15
80511;BME280;69840;53.040;8.600;2023-08-08T11:18:08;100861.44;;;19.81;60.72
80511;BME280;69840;53.040;8.600;2023-08-08T11:22:21;100870.25;;;20.73;55.07
80511;BME280;69840;53.040;8.600;2023-08-08T11:26:35;100861.16;;;19.89;57.18
80511;BME280;69840;53.040;8.600;2023-08-08T11:30:48;100859.88;;;20.10;56.07
80511;BME280;69840;53.040;8.600;2023-08-08T11:35:01;100858.38;;;21.45;50.33
80511;BME280;69840;53.040;8.600;2023-08-08T11:39:14;100884.13;;;21.88;48.43
80511;BME280;69840;53.040;8.600;2023-08-08T11:43:27;100863.78;;;21.33;48.15
80511;BME280;69840;53.040;8.600;2023-08-08T11:47:40;100865.41;;;20.63;49.17
80511;BME280;69840;53.040;8.600;2023-08-08T11:51:54;100874.72;;;20.12;50.72
80511;BME280;69840;53.040;8.600;2023-08-08T11:56:07;100938.41;;;18.92;59.14
80511;BME280;69840;53.040;8.600;2023-08-08T12:00:19;100927.84;;;16.21;73.10
80511;BME280;69840;53.040;8.600;2023-08-08T12:04:32;100948.69;;;15.33;76.24
80511;BME280;69840;53.040;8.600;2023-08-08T12:08:46;100955.97;;;15.25;75.76
80511;BME280;69840;53.040;8.600;2023-08-08T12:12:59;100930.78;;;15.49;75.55
80511;BME280;69840;53.040;8.600;2023-08-08T12:17:12;100936.22;;;15.55;74.10
80511;BME280;69840;53.040;8.600;2023-08-08T12:21:25;100931.84;;;15.75;75.31
80511;BME280;69840;53.040;8.600;2023-08-08T12:25:38;100917.56;;;16.18;73.61
80511;BME280;69840;53.040;8.600;2023-08-08T12:29:51;100907.91;;;17.71;70.26
80511;BME280;69840;53.040;8.600;2023-08-08T12:34:04;100899.19;;;21.00;58.76
80511;BME280;69840;53.040;8.600;2023-08-08T12:38:16;100896.69;;;24.46;50.95
80511;BME280;69840;53.040;8.600;2023-08-08T12:42:28;100879.84;;;24.18;48.44
80511;BME280;69840;53.040;8.600;2023-08-08T12:46:41;100881.03;;;26.18;43.24
80511;BME280;69840;53.040;8.600;2023-08-08T12:50:53;100880.16;;;24.43;46.76
80511;BME280;69840;53.040;8.600;2023-08-08T12:55:07;100871.41;;;25.80;43.15
80511;BME280;69840;53.040;8.600;2023-08-08T12:59:19;100871.09;;;25.77;42.11
80511;BME280;69840;53.040;8.600;2023-08-08T13:03:32;100881.50;;;26.68;39.83
80511;BME280;69840;53.040;8.600;2023-08-08T13:07:44;100878.75;;;25.53;39.94
80511;BME280;69840;53.040;8.600;2023-08-08T13:11:57;100867.31;;;25.41;38.39
80511;BME280;69840;53.040;8.600;2023-08-08T13:16:09;100872.97;;;24.10;41.08
80511;BME280;69840;53.040;8.600;2023-08-08T13:20:22;100878.81;;;24.02;41.46
80511;BME280;69840;53.040;8.600;2023-08-08T13:24:35;100870.31;;;23.71;41.47
80511;BME280;69840;53.040;8.600;2023-08-08T13:28:47;100863.59;;;23.74;41.73
80511;BME280;69840;53.040;8.600;2023-08-08T13:33:00;100885.38;;;22.89;41.56
80511;BME280;69840;53.040;8.600;2023-08-08T13:37:14;100876.22;;;23.52;38.94
80511;BME280;69840;53.040;8.600;2023-08-08T13:41:26;100883.59;;;24.17;38.42
80511;BME280;69840;53.040;8.600;2023-08-08T13:45:39;100877.00;;;23.69;36.39
80511;BME280;69840;53.040;8.600;2023-08-08T13:49:51;100898.94;;;23.94;37.94
80511;BME280;69840;53.040;8.600;2023-08-08T13:54:04;100894.88;;;24.30;37.08
80511;BME280;69840;53.040;8.600;2023-08-08T13:58:16;100880.19;;;24.70;36.69
80511;BME280;69840;53.040;8.600;2023-08-08T14:02:29;100877.59;;;24.80;35.39
80511;BME280;69840;53.040;8.600;2023-08-08T14:06:41;100884.56;;;24.49;35.42
80511;BME280;69840;53.040;8.600;2023-08-08T14:10:54;100885.84;;;23.64;38.19
80511;BME280;69840;53.040;8.600;2023-08-08T14:15:07;100894.09;;;23.41;39.00
80511;BME280;69840;53.040;8.600;2023-08-08T14:19:19;100912.75;;;22.69;38.54
80511;BME280;69840;53.040;8.600;2023-08-08T14:23:32;100919.91;;;22.23;40.83
80511;BME280;69840;53.040;8.600;2023-08-08T14:27:44;100927.47;;;21.33;44.33
80511;BME280;69840;53.040;8.600;2023-08-08T14:31:57;100928.16;;;20.98;43.38
80511;BME280;69840;53.040;8.600;2023-08-08T14:36:11;100933.53;;;22.57;40.61
80511;BME280;69840;53.040;8.600;2023-08-08T14:40:24;100931.81;;;22.51;40.29
80511;BME280;69840;53.040;8.600;2023-08-08T14:44:36;100928.06;;;21.35;42.82
80511;BME280;69840;53.040;8.600;2023-08-08T14:48:49;100921.34;;;21.56;43.37
80511;BME280;69840;53.040;8.600;2023-08-08T14:53:01;100938.34;;;22.55;40.81
80511;BME280;69840;53.040;8.600;2023-08-08T14:57:14;100934.69;;;23.18;40.25
80511;BME280;69840;53.040;8.600;2023-08-08T15:01:27;100928.25;;;22.62;41.50
80511;BME280;69840;53.040;8.600;2023-08-08T15:05:40;100949.88;;;21.80;44.40
80511;BME280;69840;53.040;8.600;2023-08-08T15:09:52;100954.88;;;23.15;39.93
80511;BME280;69840;53.040;8.600;2023-08-08T15:14:05;100950.88;;;23.18;40.05
80511;BME280;69840;53.040;8.600;2023-08-08T15:18:17;100950.81;;;23.13;40.04
80511;BME280;69840;53.040;8.600;2023-08-08T15:22:30;100952.19;;;21.88;41.70
80511;BME280;69840;53.040;8.600;2023-08-08T15:26:42;100958.78;;;20.97;43.19
80511;BME280;69840;53.040;8.600;2023-08-08T15:30:55;100950.28;;;21.42;44.47
80511;BME280;69840;53.040;8.600;2023-08-08T15:35:08;100944.59;;;21.09;44.20
80511;BME280;69840;53.040;8.600;2023-08-08T15:39:20;100949.59;;;20.75;44.13
80511;BME280;69840;53.040;8.600;2023-08-08T15:43:33;100947.63;;;20.09;45.83
80511;BME280;69840;53.040;8.600;2023-08-08T15:47:46;100960.50;;;20.44;45.58
80511;BME280;69840;53.040;8.600;2023-08-08T15:51:58;100960.84;;;20.29;45.66
80511;BME280;69840;53.040;8.600;2023-08-08T15:56:11;100963.03;;;20.39;45.43
80511;BME280;69840;53.040;8.600;2023-08-08T16:00:23;100952.06;;;21.07;43.31
80511;BME280;69840;53.040;8.600;2023-08-08T16:04:36;100943.47;;;20.98;44.05
80511;BME280;69840;53.040;8.600;2023-08-08T16:08:50;100957.13;;;20.66;44.44
80511;BME280;69840;53.040;8.600;2023-08-08T16:13:02;100967.19;;;20.71;44.52
80511;BME280;69840;53.040;8.600;2023-08-08T16:17:15;100963.53;;;19.86;46.99
80511;BME280;69840;53.040;8.600;2023-08-08T16:21:27;100998.91;;;19.51;48.02
80511;BME280;69840;53.040;8.600;2023-08-08T16:25:40;100999.13;;;19.05;51.49
80511;BME280;69840;53.040;8.600;2023-08-08T16:29:52;100999.59;;;18.96;51.18
80511;BME280;69840;53.040;8.600;2023-08-08T16:34:05;101016.03;;;19.50;52.48
80511;BME280;69840;53.040;8.600;2023-08-08T16:38:17;101001.63;;;19.38;50.51
80511;BME280;69840;53.040;8.600;2023-08-08T16:42:30;101004.84;;;19.53;50.44
80511;BME280;69840;53.040;8.600;2023-08-08T16:46:42;101017.66;;;19.51;48.62
80511;BME280;69840;53.040;8.600;2023-08-08T16:50:55;101022.53;;;19.23;48.87
80511;BME280;69840;53.040;8.600;2023-08-08T16:55:08;101015.59;;;19.09;50.82
80511;BME280;69840;53.040;8.600;2023-08-08T16:59:20;101006.25;;;18.86;49.92
80511;BME280;69840;53.040;8.600;2023-08-08T17:03:33;101016.28;;;18.98;50.42
80511;BME280;69840;53.040;8.600;2023-08-08T17:07:45;101016.97;;;18.73;49.99
80511;BME280;69840;53.040;8.600;2023-08-08T17:11:58;101016.97;;;18.73;50.35
80511;BME280;69840;53.040;8.600;2023-08-08T17:16:10;101013.72;;;18.71;50.10
80511;BME280;69840;53.040;8.600;2023-08-08T17:20:23;101017.44;;;18.57;50.42
80511;BME280;69840;53.040;8.600;2023-08-08T17:24:35;101022.19;;;18.62;50.62
80511;BME280;69840;53.040;8.600;2023-08-08T17:28:51;101024.66;;;18.63;49.46
80511;BME280;69840;53.040;8.600;2023-08-08T17:33:03;101023.63;;;18.44;50.99
80511;BME280;69840;53.040;8.600;2023-08-08T17:37:16;101039.66;;;18.57;50.75
80511;BME280;69840;53.040;8.600;2023-08-08T17:41:28;101028.38;;;18.36;50.43
80511;BME280;69840;53.040;8.600;2023-08-08T17:45:41;101020.97;;;18.38;51.85
80511;BME280;69840;53.040;8.600;2023-08-08T17:49:53;101030.69;;;18.26;50.56
80511;BME280;69840;53.040;8.600;2023-08-08T17:54:06;101032.75;;;18.04;51.36
80511;BME280;69840;53.040;8.600;2023-08-08T17:58:19;101030.47;;;18.01;52.39
80511;BME280;69840;53.040;8.600;2023-08-08T18:02:31;101026.59;;;17.90;51.64
80511;BME280;69840;53.040;8.600;2023-08-08T18:06:43;101022.66;;;17.86;53.02
80511;BME280;69840;53.040;8.600;2023-08-08T18:10:56;101033.75;;;17.70;52.20
80511;BME280;69840;53.040;8.600;2023-08-08T18:15:09;101020.16;;;17.58;52.15
80511;BME280;69840;53.040;8.600;2023-08-08T18:19:22;101019.50;;;17.43;51.54
80511;BME280;69840;53.040;8.600;2023-08-08T18:23:34;101027.69;;;17.35;50.97
80511;BME280;69840;53.040;8.600;2023-08-08T18:27:47;101034.25;;;17.32;51.16
80511;BME280;69840;53.040;8.600;2023-08-08T18:31:59;101027.44;;;17.16;52.11
80511;BME280;69840;53.040;8.600;2023-08-08T18:36:12;101036.88;;;17.06;51.91
80511;BME280;69840;53.040;8.600;2023-08-08T18:40:25;101039.06;;;16.89;51.46
80511;BME280;69840;53.040;8.600;2023-08-08T18:44:37;101037.84;;;16.92;51.33
80511;BME280;69840;53.040;8.600;2023-08-08T18:48:50;101046.63;;;16.79;52.75
80511;BME280;69840;53.040;8.600;2023-08-08T18:53:03;101045.34;;;16.75;52.11
80511;BME280;69840;53.040;8.600;2023-08-08T18:57:15;101043.47;;;16.69;53.07
80511;BME280;69840;53.040;8.600;2023-08-08T19:01:28;101046.19;;;16.47;53.87
80511;BME280;69840;53.040;8.600;2023-08-08T19:05:40;101042.47;;;16.42;54.61
80511;BME280;69840;53.040;8.600;2023-08-08T19:09:53;101044.69;;;16.38;54.73
80511;BME280;69840;53.040;8.600;2023-08-08T19:14:06;101052.09;;;16.36;55.09
80511;BME280;69840;53.040;8.600;2023-08-08T19:18:19;101052.03;;;16.30;55.75
80511;BME280;69840;53.040;8.600;2023-08-08T19:22:31;101064.38;;;16.09;56.66
80511;BME280;69840;53.040;8.600;2023-08-08T19:26:44;101051.00;;;16.03;56.68
80511;BME280;69840;53.040;8.600;2023-08-08T19:30:56;101062.63;;;15.95;56.98
80511;BME280;69840;53.040;8.600;2023-08-08T19:35:09;101060.47;;;15.84;57.71
80511;BME280;69840;53.040;8.600;2023-08-08T19:39:21;101057.00;;;15.84;56.99
80511;BME280;69840;53.040;8.600;2023-08-08T19:43:34;101061.38;;;15.70;56.90
80511;BME280;69840;53.040;8.600;2023-08-08T19:47:46;101061.94;;;15.65;57.34
80511;BME280;69840;53.040;8.600;2023-08-08T19:51:59;101074.56;;;15.57;57.01
80511;BME280;69840;53.040;8.600;2023-08-08T19:56:11;101069.94;;;15.51;57.63
80511;BME280;69840;53.040;8.600;2023-08-08T20:00:27;101072.53;;;15.44;57.79
80511;BME280;69840;53.040;8.600;2023-08-08T20:04:40;101068.00;;;15.23;57.47
80511;BME280;69840;53.040;8.600;2023-08-08T20:08:52;101060.22;;;15.22;57.94
80511;BME280;69840;53.040;8.600;2023-08-08T20:13:05;101052.91;;;15.09;58.17
80511;BME280;69840;53.040;8.600;2023-08-08T20:17:17;101067.59;;;15.05;57.88
80511;BME280;69840;53.040;8.600;2023-08-08T20:21:30;101059.78;;;15.03;58.15
80511;BME280;69840;53.040;8.600;2023-08-08T20:25:43;101061.28;;;14.91;58.92
80511;BME280;69840;53.040;8.600;2023-08-08T20:29:56;101067.41;;;14.92;59.17
80511;BME280;69840;53.040;8.600;2023-08-08T20:34:09;101069.25;;;14.91;59.59
80511;BME280;69840;53.040;8.600;2023-08-08T20:38:21;101073.47;;;14.86;59.70
80511;BME280;69840;53.040;8.600;2023-08-08T20:42:34;101083.22;;;14.79;60.45
80511;BME280;69840;53.040;8.600;2023-08-08T20:46:46;101086.06;;;14.77;60.51
80511;BME280;69840;53.040;8.600;2023-08-08T20:50:58;101098.97;;;14.65;61.04
80511;BME280;69840;53.040;8.600;2023-08-08T20:55:11;101100.53;;;14.60;61.74
80511;BME280;69840;53.040;8.600;2023-08-08T20:59:27;101096.41;;;14.57;62.02
80511;BME280;69840;53.040;8.600;2023-08-08T21:03:39;101103.09;;;14.53;62.67
80511;BME280;69840;53.040;8.600;2023-08-08T21:07:52;101107.13;;;14.49;62.83
80511;BME280;69840;53.040;8.600;2023-08-08T21:12:05;101098.22;;;14.42;63.74
80511;BME280;69840;53.040;8.600;2023-08-08T21:16:17;101099.25;;;14.33;64.31
80511;BME280;69840;53.040;8.600;2023-08-08T21:20:29;101101.34;;;14.23;64.24
80511;BME280;69840;53.040;8.600;2023-08-08T21:24:42;101101.63;;;14.13;65.32
80511;BME280;69840;53.040;8.600;2023-08-08T21:28:54;101100.97;;;14.11;65.31
80511;BME280;69840;53.040;8.600;2023-08-08T21:33:07;101110.75;;;14.11;65.38
80511;BME280;69840;53.040;8.600;2023-08-08T21:37:20;101107.44;;;14.09;65.57
80511;BME280;69840;53.040;8.600;2023-08-08T21:41:32;101107.63;;;14.07;65.46
80511;BME280;69840;53.040;8.600;2023-08-08T21:45:45;101104.66;;;14.02;65.83
80511;BME280;69840;53.040;8.600;2023-08-08T21:49:57;101097.28;;;13.89;66.41
80511;BME280;69840;53.040;8.600;2023-08-08T21:54:10;101094.38;;;13.84;66.60
80511;BME280;69840;53.040;8.600;2023-08-08T21:58:23;101089.22;;;13.83;66.97
80511;BME280;69840;53.040;8.600;2023-08-08T22:02:35;101085.75;;;13.82;66.94